createdAt,value
2016-11-18T00:00:06.089Z,988.64
2016-11-18T00:01:06.075Z,988.68
2016-11-18T00:02:06.048Z,988.64
2016-11-18T00:03:06.031Z,988.6
2016-11-18T00:04:06.009Z,988.55
2016-11-18T00:05:05.992Z,988.55
2016-11-18T00:06:05.971Z,988.55
2016-11-18T00:07:05.952Z,988.64
2016-11-18T00:08:05.939Z,988.58
2016-11-18T00:09:05.921Z,988.58
2016-11-18T00:10:05.892Z,988.48
2016-11-18T00:11:05.873Z,988.51
2016-11-18T00:12:05.857Z,988.57
2016-11-18T00:13:05.834Z,988.48
2016-11-18T00:14:05.820Z,988.44
2016-11-18T00:15:05.799Z,988.44
2016-11-18T00:16:05.779Z,988.32
2016-11-18T00:17:05.759Z,988.31
2016-11-18T00:18:05.740Z,988.3
2016-11-18T00:19:05.721Z,988.3
2016-11-18T00:20:05.703Z,988.29
2016-11-18T00:21:05.685Z,988.26
2016-11-18T00:22:05.668Z,988.25
2016-11-18T00:23:05.644Z,988.22
2016-11-18T00:24:05.628Z,988.25
2016-11-18T00:25:05.606Z,988.22
2016-11-18T00:26:05.590Z,988.18
2016-11-18T00:27:05.569Z,988.16
2016-11-18T00:28:05.551Z,988.14
2016-11-18T00:29:05.528Z,988.14
2016-11-18T00:30:05.510Z,988.15
2016-11-18T00:31:05.494Z,988.1
2016-11-18T00:32:05.470Z,988.03
2016-11-18T00:33:05.451Z,988.07
2016-11-18T00:34:05.432Z,988.14
2016-11-18T00:35:05.411Z,988.1
2016-11-18T00:36:05.393Z,988.04
2016-11-18T00:37:05.378Z,988.06
2016-11-18T00:38:05.362Z,988.02
2016-11-18T00:39:05.335Z,987.97
2016-11-18T00:40:05.314Z,987.99
2016-11-18T00:41:05.298Z,987.95
2016-11-18T00:42:05.282Z,987.92
2016-11-18T00:43:05.260Z,987.93
2016-11-18T00:44:05.242Z,987.95
2016-11-18T00:45:05.220Z,987.92
2016-11-18T00:46:05.202Z,987.95
2016-11-18T00:47:05.192Z,987.86
2016-11-18T00:48:05.162Z,987.9
2016-11-18T00:49:05.149Z,987.93
2016-11-18T00:50:05.126Z,987.83
2016-11-18T00:51:05.111Z,987.88
2016-11-18T00:52:05.086Z,987.81
2016-11-18T00:53:05.073Z,987.81
2016-11-18T00:54:05.046Z,987.72
2016-11-18T00:55:05.030Z,987.71
2016-11-18T00:56:05.011Z,987.78
2016-11-18T00:57:04.992Z,987.87
2016-11-18T00:58:04.972Z,987.9
2016-11-18T00:59:04.958Z,988.06
2016-11-18T01:00:04.939Z,988.16
2016-11-18T01:01:04.914Z,988.1
2016-11-18T01:02:04.903Z,988.11
2016-11-18T01:03:04.882Z,988.17
2016-11-18T01:04:04.861Z,988.24
2016-11-18T01:05:04.839Z,988.36
2016-11-18T01:06:04.821Z,988.4
2016-11-18T01:07:04.800Z,988.48
2016-11-18T01:08:04.781Z,988.49
2016-11-18T01:09:04.774Z,988.54
2016-11-18T01:10:04.749Z,988.45
2016-11-18T01:11:04.731Z,988.23
2016-11-18T01:12:04.709Z,988.33
2016-11-18T01:13:04.691Z,988.44
2016-11-18T01:14:04.668Z,988.54
2016-11-18T01:15:04.652Z,988.25
2016-11-18T01:16:04.632Z,988.02
2016-11-18T01:17:04.613Z,987.9
2016-11-18T01:18:04.591Z,987.63
2016-11-18T01:19:04.572Z,987.74
2016-11-18T01:20:04.553Z,988.12
2016-11-18T01:21:04.532Z,988.04
2016-11-18T01:22:04.509Z,988
2016-11-18T01:23:04.491Z,988.24
2016-11-18T01:24:04.472Z,988.55
2016-11-18T01:25:04.451Z,988.33
2016-11-18T01:26:04.432Z,988
2016-11-18T01:27:04.411Z,988.04
2016-11-18T01:28:04.397Z,988.39
2016-11-18T01:29:04.373Z,988.46
2016-11-18T01:30:04.362Z,988.2
2016-11-18T01:31:04.333Z,988.06
2016-11-18T01:32:04.325Z,988.07
2016-11-18T01:33:04.302Z,988.03
2016-11-18T01:34:04.278Z,987.95
2016-11-18T01:35:04.258Z,988.05
2016-11-18T01:36:04.238Z,988.11
2016-11-18T01:37:04.218Z,987.8
2016-11-18T01:38:04.202Z,987.7
2016-11-18T01:39:04.177Z,987.94
2016-11-18T01:40:04.163Z,988.22
2016-11-18T01:41:04.139Z,988.21
2016-11-18T01:42:04.123Z,988.16
2016-11-18T01:43:04.100Z,988.17
2016-11-18T01:44:04.084Z,988.01
2016-11-18T01:45:04.070Z,987.76
2016-11-18T01:46:04.042Z,987.91
2016-11-18T01:47:04.071Z,987.94
2016-11-18T01:48:04.003Z,987.97
2016-11-18T01:49:03.983Z,988.28
2016-11-18T01:50:03.963Z,988.12
2016-11-18T01:51:03.944Z,987.71
2016-11-18T01:52:03.923Z,987.73
2016-11-18T01:53:03.904Z,987.96
2016-11-18T01:54:03.883Z,988.19
2016-11-18T01:55:03.862Z,988.23
2016-11-18T01:56:03.846Z,988.06
2016-11-18T01:57:03.822Z,987.85
2016-11-18T01:58:03.803Z,987.84
2016-11-18T01:59:03.785Z,987.94
2016-11-18T02:00:03.763Z,988.03
2016-11-18T02:01:03.742Z,987.82
2016-11-18T02:02:03.725Z,987.74
2016-11-18T02:03:03.710Z,987.7
2016-11-18T02:04:03.684Z,987.75
2016-11-18T02:05:03.674Z,987.86
2016-11-18T02:06:03.646Z,987.9
2016-11-18T02:07:03.625Z,987.84
2016-11-18T02:08:03.613Z,987.74
2016-11-18T02:09:03.593Z,987.72
2016-11-18T02:10:03.565Z,987.72
2016-11-18T02:11:03.544Z,987.66
2016-11-18T02:12:03.527Z,987.61
2016-11-18T02:13:03.511Z,987.6
2016-11-18T02:14:03.489Z,987.53
2016-11-18T02:15:03.467Z,987.46
2016-11-18T02:16:03.450Z,987.38
2016-11-18T02:17:03.433Z,987.35
2016-11-18T02:18:03.406Z,987.32
2016-11-18T02:19:03.393Z,987.28
2016-11-18T02:20:03.373Z,987.25
2016-11-18T02:21:03.351Z,987.29
2016-11-18T02:22:03.328Z,987.35
2016-11-18T02:23:03.311Z,987.46
2016-11-18T02:24:03.293Z,987.59
2016-11-18T02:25:03.273Z,987.57
2016-11-18T02:26:03.249Z,987.49
2016-11-18T02:27:03.233Z,987.34
2016-11-18T02:28:03.212Z,987.3
2016-11-18T02:29:03.193Z,987.19
2016-11-18T02:30:03.172Z,987.14
2016-11-18T02:31:03.153Z,987.21
2016-11-18T02:32:03.132Z,987.34
2016-11-18T02:33:03.114Z,987.52
2016-11-18T02:34:03.090Z,987.58
2016-11-18T02:35:03.072Z,987.44
2016-11-18T02:36:03.049Z,987.41
2016-11-18T02:37:03.031Z,987.35
2016-11-18T02:38:03.011Z,987.32
2016-11-18T02:39:02.993Z,987.26
2016-11-18T02:40:02.972Z,987.3
2016-11-18T02:41:02.953Z,987.3
2016-11-18T02:42:02.932Z,987.33
2016-11-18T02:43:02.913Z,987.29
2016-11-18T02:44:02.892Z,987.29
2016-11-18T02:45:02.873Z,987.3
2016-11-18T02:46:02.862Z,987.32
2016-11-18T02:47:02.832Z,987.37
2016-11-18T02:48:02.813Z,987.35
2016-11-18T02:49:02.793Z,987.39
2016-11-18T02:50:02.772Z,987.36
2016-11-18T02:51:02.752Z,987.3
2016-11-18T02:52:02.731Z,987.31
2016-11-18T02:53:02.716Z,987.26
2016-11-18T02:54:02.700Z,987.28
2016-11-18T02:55:02.672Z,987.28
2016-11-18T02:56:02.658Z,987.18
2016-11-18T02:57:02.642Z,986.98
2016-11-18T02:58:02.613Z,986.78
2016-11-18T02:59:02.602Z,986.62
2016-11-18T03:00:02.575Z,986.51
2016-11-18T03:01:02.554Z,986.5
2016-11-18T03:02:02.541Z,986.58
2016-11-18T03:03:02.524Z,986.59
2016-11-18T03:04:02.495Z,986.58
2016-11-18T03:05:02.480Z,986.58
2016-11-18T03:06:02.459Z,986.63
2016-11-18T03:07:02.442Z,986.58
2016-11-18T03:08:02.421Z,986.55
2016-11-18T03:09:02.395Z,986.61
2016-11-18T03:10:02.379Z,986.6
2016-11-18T03:11:02.362Z,986.63
2016-11-18T03:12:02.335Z,986.63
2016-11-18T03:13:02.371Z,986.57
2016-11-18T03:14:02.297Z,986.61
2016-11-18T03:15:02.276Z,986.64
2016-11-18T03:16:02.273Z,986.61
2016-11-18T03:17:02.238Z,986.58
2016-11-18T03:18:02.222Z,986.44
2016-11-18T03:19:02.201Z,986.44
2016-11-18T03:20:02.175Z,986.38
2016-11-18T03:21:02.164Z,986.29
2016-11-18T03:22:02.135Z,986.31
2016-11-18T03:23:02.119Z,986.36
2016-11-18T03:24:02.101Z,986.33
2016-11-18T03:25:02.079Z,986.34
2016-11-18T03:26:02.060Z,986.38
2016-11-18T03:27:02.041Z,986.36
2016-11-18T03:28:02.017Z,986.44
2016-11-18T03:29:01.999Z,986.39
2016-11-18T03:30:01.977Z,986.38
2016-11-18T03:31:01.961Z,986.38
2016-11-18T03:32:01.935Z,986.39
2016-11-18T03:33:01.922Z,986.36
2016-11-18T03:34:01.902Z,986.4
2016-11-18T03:35:01.880Z,986.42
2016-11-18T03:36:01.865Z,986.43
2016-11-18T03:37:01.841Z,986.4
2016-11-18T03:38:01.816Z,986.38
2016-11-18T03:39:01.796Z,986.43
2016-11-18T03:40:01.783Z,986.46
2016-11-18T03:41:01.757Z,986.5
2016-11-18T03:42:01.735Z,986.58
2016-11-18T03:43:01.717Z,986.66
2016-11-18T03:44:01.700Z,986.71
2016-11-18T03:45:01.678Z,986.71
2016-11-18T03:46:01.661Z,986.7
2016-11-18T03:47:01.637Z,986.68
2016-11-18T03:48:01.616Z,986.62
2016-11-18T03:49:01.601Z,986.56
2016-11-18T03:50:01.572Z,986.57
2016-11-18T03:51:01.559Z,986.55
2016-11-18T03:52:01.539Z,986.52
2016-11-18T03:53:01.516Z,986.51
2016-11-18T03:54:01.497Z,986.54
2016-11-18T03:55:01.478Z,986.42
2016-11-18T03:56:01.456Z,986.31
2016-11-18T03:57:01.433Z,986.3
2016-11-18T03:58:01.414Z,986.23
2016-11-18T03:59:01.390Z,986.2
2016-11-18T04:00:01.378Z,986.18
2016-11-18T04:01:01.350Z,986.2
2016-11-18T04:02:01.331Z,986.19
2016-11-18T04:03:01.310Z,986.24
2016-11-18T04:04:01.299Z,986.19
2016-11-18T04:05:01.269Z,986.2
2016-11-18T04:06:01.253Z,986.21
2016-11-18T04:07:01.237Z,986.16
2016-11-18T04:08:01.208Z,986.11
2016-11-18T04:09:01.190Z,986.12
2016-11-18T04:10:01.170Z,986.14
2016-11-18T04:11:01.148Z,986.17
2016-11-18T04:12:01.128Z,986.19
2016-11-18T04:13:01.108Z,986.27
2016-11-18T04:14:01.089Z,986.31
2016-11-18T04:15:01.078Z,986.43
2016-11-18T04:16:01.054Z,986.51
2016-11-18T04:17:01.029Z,986.53
2016-11-18T04:18:01.008Z,986.55
2016-11-18T04:19:00.988Z,986.59
2016-11-18T04:20:00.967Z,986.67
2016-11-18T04:21:00.949Z,986.69
2016-11-18T04:22:00.927Z,986.69
2016-11-18T04:23:00.908Z,986.74
2016-11-18T04:24:00.888Z,986.8
2016-11-18T04:25:00.869Z,986.83
2016-11-18T04:26:00.846Z,986.89
2016-11-18T04:27:00.828Z,987.01
2016-11-18T04:28:00.806Z,987.02
2016-11-18T04:29:00.789Z,987.01
2016-11-18T04:30:00.766Z,987.04
2016-11-18T04:31:00.749Z,987.06
2016-11-18T04:32:00.728Z,987.22
2016-11-18T04:33:00.711Z,987.47
2016-11-18T04:34:00.688Z,987.81
2016-11-18T04:35:00.670Z,988.07
2016-11-18T04:36:00.648Z,988.25
2016-11-18T04:37:00.678Z,988.25
2016-11-18T04:38:00.608Z,988.29
2016-11-18T04:39:00.585Z,988.23
2016-11-18T04:40:00.568Z,988.26
2016-11-18T04:41:00.546Z,988.2
2016-11-18T04:42:00.523Z,988.11
2016-11-18T04:43:00.506Z,987.98
2016-11-18T04:44:00.483Z,987.89
2016-11-18T04:45:00.563Z,987.77
2016-11-18T04:46:00.443Z,987.73
2016-11-18T04:47:00.421Z,987.74
2016-11-18T04:48:00.405Z,987.75
2016-11-18T04:49:00.381Z,987.82
2016-11-18T04:50:00.359Z,987.85
2016-11-18T04:51:00.357Z,987.83
2016-11-18T04:52:00.317Z,987.81
2016-11-18T04:53:00.399Z,987.63
2016-11-18T04:54:00.278Z,987.45
2016-11-18T04:55:00.406Z,987.27
2016-11-18T04:56:00.239Z,987.24
2016-11-18T04:57:00.214Z,987.32
2016-11-18T04:58:00.191Z,987.54
2016-11-18T04:59:00.172Z,987.56
2016-11-18T05:00:00.152Z,987.66
2016-11-18T05:01:00.136Z,987.64
2016-11-18T05:02:00.107Z,987.61
2016-11-18T05:03:00.137Z,987.53
2016-11-18T05:04:00.064Z,987.5
2016-11-18T05:05:00.098Z,987.35
2016-11-18T05:06:00.026Z,987.09
2016-11-18T05:07:00.009Z,986.93
2016-11-18T05:07:59.986Z,986.93
2016-11-18T05:08:59.972Z,987.05
2016-11-18T05:09:59.951Z,987.18
2016-11-18T05:10:59.919Z,987.32
2016-11-18T05:11:59.899Z,987.32
2016-11-18T05:12:59.875Z,987.36
2016-11-18T05:13:59.859Z,987.5
2016-11-18T05:14:59.839Z,987.56
2016-11-18T05:15:59.819Z,987.53
2016-11-18T05:16:59.794Z,987.58
2016-11-18T05:17:59.771Z,987.59
2016-11-18T05:18:59.753Z,987.6
2016-11-18T05:19:59.728Z,987.56
2016-11-18T05:20:59.709Z,987.55
2016-11-18T05:21:59.690Z,987.49
2016-11-18T05:22:59.670Z,987.47
2016-11-18T05:23:59.645Z,987.35
2016-11-18T05:24:59.634Z,987.28
2016-11-18T05:25:59.611Z,987.34
2016-11-18T05:26:59.579Z,987.44
2016-11-18T05:27:59.559Z,987.51
2016-11-18T05:28:59.539Z,987.64
2016-11-18T05:29:59.520Z,987.68
2016-11-18T05:30:59.494Z,987.77
2016-11-18T05:31:59.476Z,987.62
2016-11-18T05:32:59.452Z,987.45
2016-11-18T05:33:59.434Z,987.39
2016-11-18T05:34:59.409Z,987.34
2016-11-18T05:35:59.389Z,987.33
2016-11-18T05:36:59.369Z,987.28
2016-11-18T05:37:59.349Z,987.29
2016-11-18T05:38:59.324Z,987.32
2016-11-18T05:39:59.312Z,987.48
2016-11-18T05:40:59.281Z,987.54
2016-11-18T05:41:59.260Z,987.62
2016-11-18T05:42:59.239Z,987.71
2016-11-18T05:43:59.222Z,987.73
2016-11-18T05:44:59.196Z,987.85
2016-11-18T05:45:59.174Z,987.83
2016-11-18T05:46:59.159Z,987.91
2016-11-18T05:47:59.133Z,987.95
2016-11-18T05:48:59.110Z,988.01
2016-11-18T05:49:59.089Z,987.93
2016-11-18T05:50:59.067Z,988.01
2016-11-18T05:51:59.046Z,987.98
2016-11-18T05:52:59.030Z,988.03
2016-11-18T05:53:59.005Z,988.09
2016-11-18T05:54:58.989Z,988.05
2016-11-18T05:55:58.961Z,988.02
2016-11-18T05:56:58.935Z,988.03
2016-11-18T05:57:58.920Z,988.08
2016-11-18T05:58:58.897Z,988.11
2016-11-18T05:59:58.870Z,988.01
2016-11-18T06:00:58.849Z,987.95
2016-11-18T06:01:58.829Z,987.78
2016-11-18T06:02:58.807Z,987.65
2016-11-18T06:03:58.784Z,987.55
2016-11-18T06:04:58.765Z,987.47
2016-11-18T06:05:58.740Z,987.5
2016-11-18T06:06:58.716Z,987.62
2016-11-18T06:07:58.693Z,987.67
2016-11-18T06:08:58.683Z,987.71
2016-11-18T06:09:58.658Z,987.78
2016-11-18T06:10:58.628Z,987.78
2016-11-18T06:11:58.611Z,987.79
2016-11-18T06:12:58.585Z,987.78
2016-11-18T06:13:58.566Z,987.7
2016-11-18T06:14:58.550Z,987.65
2016-11-18T06:15:58.520Z,987.66
2016-11-18T06:16:58.499Z,987.7
2016-11-18T06:17:58.480Z,987.74
2016-11-18T06:18:58.460Z,987.72
2016-11-18T06:19:58.436Z,987.74
2016-11-18T06:20:58.414Z,987.63
2016-11-18T06:21:58.390Z,987.66
2016-11-18T06:22:58.369Z,987.76
2016-11-18T06:23:58.360Z,987.79
2016-11-18T06:24:58.330Z,987.79
2016-11-18T06:25:58.312Z,987.79
2016-11-18T06:26:58.280Z,987.77
2016-11-18T06:27:58.259Z,987.74
2016-11-18T06:28:58.240Z,987.84
2016-11-18T06:29:58.219Z,987.84
2016-11-18T06:30:58.200Z,987.81
2016-11-18T06:31:58.170Z,987.74
2016-11-18T06:32:58.150Z,987.69
2016-11-18T06:33:58.130Z,987.69
2016-11-18T06:34:58.111Z,987.62
2016-11-18T06:35:58.085Z,987.65
2016-11-18T06:36:58.062Z,987.65
2016-11-18T06:37:58.039Z,987.62
2016-11-18T06:38:58.022Z,987.61
2016-11-18T06:39:57.996Z,987.54
2016-11-18T06:40:57.982Z,987.52
2016-11-18T06:41:57.961Z,987.5
2016-11-18T06:42:57.930Z,987.62
2016-11-18T06:43:57.909Z,987.68
2016-11-18T06:44:57.893Z,987.74
2016-11-18T06:45:57.866Z,987.74
2016-11-18T06:46:57.839Z,987.73
2016-11-18T06:47:57.822Z,987.74
2016-11-18T06:48:57.794Z,987.78
2016-11-18T06:49:57.774Z,987.85
2016-11-18T06:50:57.756Z,987.88
2016-11-18T06:51:57.730Z,987.82
2016-11-18T06:52:57.713Z,987.86
2016-11-18T06:53:57.684Z,987.92
2016-11-18T06:54:57.662Z,988.04
2016-11-18T06:55:57.641Z,988.07
2016-11-18T06:56:57.619Z,988.05
2016-11-18T06:57:57.598Z,988.12
2016-11-18T06:58:57.571Z,988.07
2016-11-18T06:59:57.552Z,988.02
2016-11-18T07:00:57.531Z,988.01
2016-11-18T07:01:57.510Z,988
2016-11-18T07:02:57.481Z,987.96
2016-11-18T07:03:57.461Z,987.93
2016-11-18T07:04:57.452Z,987.99
2016-11-18T07:05:57.414Z,988.02
2016-11-18T07:06:57.392Z,988.02
2016-11-18T07:07:57.371Z,988.04
2016-11-18T07:08:57.352Z,988
2016-11-18T07:09:57.325Z,988
2016-11-18T07:10:57.302Z,988.08
2016-11-18T07:11:57.281Z,987.93
2016-11-18T07:12:57.262Z,987.95
2016-11-18T07:13:57.238Z,987.87
2016-11-18T07:14:57.213Z,987.85
2016-11-18T07:15:57.190Z,987.83
2016-11-18T07:16:57.171Z,987.89
2016-11-18T07:17:57.146Z,987.84
2016-11-18T07:18:57.123Z,987.79
2016-11-18T07:19:57.102Z,987.75
2016-11-18T07:20:57.082Z,987.68
2016-11-18T07:21:57.056Z,987.65
2016-11-18T07:22:57.033Z,987.62
2016-11-18T07:23:57.011Z,987.47
2016-11-18T07:24:56.987Z,987.5
2016-11-18T07:25:56.971Z,987.45
2016-11-18T07:26:56.943Z,987.54
2016-11-18T07:27:56.922Z,987.54
2016-11-18T07:28:56.898Z,987.62
2016-11-18T07:29:56.882Z,987.6
2016-11-18T07:30:56.861Z,987.55
2016-11-18T07:31:56.830Z,987.54
2016-11-18T07:32:56.806Z,987.52
2016-11-18T07:33:56.786Z,987.55
2016-11-18T07:34:56.762Z,987.58
2016-11-18T07:35:56.743Z,987.69
2016-11-18T07:36:56.722Z,987.69
2016-11-18T07:37:56.751Z,987.76
2016-11-18T07:38:56.670Z,987.83
2016-11-18T07:39:56.701Z,987.79
2016-11-18T07:40:56.626Z,987.89
2016-11-18T07:41:56.605Z,987.9
2016-11-18T07:42:56.583Z,987.84
2016-11-18T07:43:56.562Z,987.88
2016-11-18T07:44:56.534Z,987.85
2016-11-18T07:45:56.514Z,987.89
2016-11-18T07:46:56.492Z,987.86
2016-11-18T07:47:56.472Z,987.88
2016-11-18T07:48:56.450Z,987.89
2016-11-18T07:49:56.432Z,987.95
2016-11-18T07:50:56.402Z,988.01
2016-11-18T07:51:56.382Z,988.13
2016-11-18T07:52:56.363Z,988.12
2016-11-18T07:53:56.339Z,988.1
2016-11-18T07:54:56.322Z,988.13
2016-11-18T07:55:56.292Z,988.25
2016-11-18T07:56:56.272Z,988.27
2016-11-18T07:57:56.251Z,988.25
2016-11-18T07:58:56.229Z,988.23
2016-11-18T07:59:56.202Z,988.18
2016-11-18T08:00:56.181Z,988.12
2016-11-18T08:01:56.162Z,987.99
2016-11-18T08:02:56.134Z,987.99
2016-11-18T08:03:56.117Z,987.88
2016-11-18T08:04:56.096Z,987.9
2016-11-18T08:05:56.070Z,987.83
2016-11-18T08:06:56.047Z,987.89
2016-11-18T08:07:56.022Z,988.01
2016-11-18T08:08:55.999Z,988.16
2016-11-18T08:09:55.981Z,988.27
2016-11-18T08:10:55.960Z,988.34
2016-11-18T08:11:55.935Z,988.44
2016-11-18T08:12:55.914Z,988.39
2016-11-18T08:13:55.888Z,988.41
2016-11-18T08:14:55.864Z,988.37
2016-11-18T08:15:55.842Z,988.37
2016-11-18T08:16:55.823Z,988.32
2016-11-18T08:17:55.799Z,988.51
2016-11-18T08:18:55.778Z,988.45
2016-11-18T08:19:55.752Z,988.36
2016-11-18T08:20:55.731Z,988.41
2016-11-18T08:21:55.708Z,988.31
2016-11-18T08:22:55.701Z,988.27
2016-11-18T08:23:55.663Z,988.25
2016-11-18T08:24:55.642Z,988.22
2016-11-18T08:25:55.624Z,988.23
2016-11-18T08:26:55.596Z,988.29
2016-11-18T08:27:55.581Z,988.41
2016-11-18T08:28:55.553Z,988.43
2016-11-18T08:29:55.532Z,988.52
2016-11-18T08:30:55.509Z,988.58
2016-11-18T08:31:55.489Z,988.55
2016-11-18T08:32:55.471Z,988.52
2016-11-18T08:33:55.447Z,988.43
2016-11-18T08:34:55.431Z,988.47
2016-11-18T08:35:55.407Z,988.46
2016-11-18T08:36:55.392Z,988.48
2016-11-18T08:37:55.367Z,988.35
2016-11-18T08:38:55.352Z,988.36
2016-11-18T08:39:55.329Z,988.35
2016-11-18T08:40:55.315Z,988.38
2016-11-18T08:41:55.293Z,988.41
2016-11-18T08:42:55.276Z,988.49
2016-11-18T08:43:55.253Z,988.44
2016-11-18T08:44:55.232Z,988.35
2016-11-18T08:45:55.216Z,988.34
2016-11-18T08:46:55.194Z,988.51
2016-11-18T08:47:55.284Z,988.55
2016-11-18T08:48:55.153Z,988.55
2016-11-18T08:49:55.232Z,988.7
2016-11-18T08:50:55.116Z,988.64
2016-11-18T08:51:55.100Z,988.51
2016-11-18T08:52:55.076Z,988.47
2016-11-18T08:53:55.072Z,988.4
2016-11-18T08:54:55.043Z,988.39
2016-11-18T08:55:55.024Z,988.45
2016-11-18T08:56:55.002Z,988.45
2016-11-18T08:57:54.989Z,988.44
2016-11-18T08:58:54.962Z,988.53
2016-11-18T08:59:54.952Z,988.34
2016-11-18T09:00:54.926Z,988.31
2016-11-18T09:01:54.913Z,988.15
2016-11-18T09:02:54.892Z,987.99
2016-11-18T09:03:54.873Z,987.97
2016-11-18T09:04:54.848Z,988.15
2016-11-18T09:05:54.836Z,988.29
2016-11-18T09:06:54.813Z,988.43
2016-11-18T09:07:54.797Z,988.51
2016-11-18T09:08:54.775Z,988.58
2016-11-18T09:09:54.758Z,988.61
2016-11-18T09:10:54.737Z,988.73
2016-11-18T09:11:54.768Z,988.76
2016-11-18T09:12:54.710Z,988.78
2016-11-18T09:13:54.688Z,988.78
2016-11-18T09:14:54.661Z,988.75
2016-11-18T09:15:54.641Z,988.92
2016-11-18T09:16:54.620Z,988.81
2016-11-18T09:17:54.605Z,988.96
2016-11-18T09:18:54.579Z,988.97
2016-11-18T09:19:54.563Z,988.84
2016-11-18T09:20:54.544Z,988.85
2016-11-18T09:21:54.524Z,988.77
2016-11-18T09:22:54.504Z,988.74
2016-11-18T09:23:54.483Z,988.78
2016-11-18T09:24:54.457Z,988.89
2016-11-18T09:25:54.451Z,988.83
2016-11-18T09:26:54.424Z,988.84
2016-11-18T09:27:54.414Z,988.94
2016-11-18T09:28:54.384Z,988.91
2016-11-18T09:29:54.358Z,989.01
2016-11-18T09:30:54.344Z,989.07
2016-11-18T09:31:54.323Z,989.14
2016-11-18T09:32:54.307Z,989.2
2016-11-18T09:33:54.285Z,989.12
2016-11-18T09:34:54.264Z,989.14
2016-11-18T09:35:54.243Z,989.27
2016-11-18T09:36:54.224Z,989.24
2016-11-18T09:37:54.196Z,989.37
2016-11-18T09:38:54.176Z,989.33
2016-11-18T09:39:54.158Z,989.36
2016-11-18T09:40:54.137Z,989.31
2016-11-18T09:41:54.124Z,989.42
2016-11-18T09:42:54.093Z,989.33
2016-11-18T09:43:54.074Z,989.33
2016-11-18T09:44:54.050Z,989.34
2016-11-18T09:45:54.034Z,989.29
2016-11-18T09:46:54.011Z,989.26
2016-11-18T09:47:53.993Z,989.33
2016-11-18T09:48:53.975Z,989.4
2016-11-18T09:49:53.948Z,989.38
2016-11-18T09:50:53.925Z,989.37
2016-11-18T09:51:53.905Z,989.4
2016-11-18T09:52:53.893Z,989.44
2016-11-18T09:53:53.863Z,989.49
2016-11-18T09:54:53.842Z,989.48
2016-11-18T09:55:53.820Z,989.42
2016-11-18T09:56:53.801Z,989.48
2016-11-18T09:57:53.779Z,989.87
2016-11-18T09:58:53.757Z,989.55
2016-11-18T09:59:53.741Z,989.5
2016-11-18T10:00:53.722Z,989.58
2016-11-18T10:01:53.694Z,989.58
2016-11-18T10:02:53.680Z,989.68
2016-11-18T10:03:53.656Z,989.7
2016-11-18T10:04:53.635Z,989.61
2016-11-18T10:05:53.613Z,989.71
2016-11-18T10:06:53.592Z,989.66
2016-11-18T10:07:53.573Z,989.67
2016-11-18T10:08:53.551Z,989.64
2016-11-18T10:09:53.528Z,989.6
2016-11-18T10:10:53.510Z,989.62
2016-11-18T10:11:53.493Z,989.57
2016-11-18T10:12:53.471Z,989.62
2016-11-18T10:13:53.451Z,989.54
2016-11-18T10:14:53.424Z,989.6
2016-11-18T10:15:53.401Z,989.6
2016-11-18T10:16:53.383Z,989.51
2016-11-18T10:17:53.364Z,989.54
2016-11-18T10:18:53.342Z,989.58
2016-11-18T10:19:53.321Z,989.4
2016-11-18T10:20:53.302Z,989.51
2016-11-18T10:21:53.286Z,989.46
2016-11-18T10:22:53.262Z,989.29
2016-11-18T10:23:53.241Z,989.26
2016-11-18T10:24:53.220Z,989.32
2016-11-18T10:25:53.201Z,989.34
2016-11-18T10:26:53.180Z,989.38
2016-11-18T10:27:53.161Z,989.43
2016-11-18T10:28:53.143Z,989.53
2016-11-18T10:29:53.126Z,989.56
2016-11-18T10:30:53.103Z,989.62
2016-11-18T10:31:53.092Z,989.67
2016-11-18T10:32:53.081Z,989.67
2016-11-18T10:33:53.049Z,989.69
2016-11-18T10:34:53.031Z,989.61
2016-11-18T10:35:53.012Z,989.56
2016-11-18T10:36:52.991Z,989.62
2016-11-18T10:37:52.971Z,989.61
2016-11-18T10:38:52.952Z,989.69
2016-11-18T10:39:52.933Z,989.77
2016-11-18T10:40:52.913Z,989.74
2016-11-18T10:41:52.899Z,989.72
2016-11-18T10:42:52.873Z,989.73
2016-11-18T10:43:52.859Z,989.69
2016-11-18T10:44:52.841Z,989.75
2016-11-18T10:45:52.822Z,989.75
2016-11-18T10:46:52.810Z,989.75
2016-11-18T10:47:52.782Z,989.8
2016-11-18T10:48:52.767Z,989.81
2016-11-18T10:49:52.747Z,989.86
2016-11-18T10:50:52.733Z,989.75
2016-11-18T10:51:52.711Z,989.77
2016-11-18T10:52:52.693Z,989.86
2016-11-18T10:53:52.678Z,989.86
2016-11-18T10:54:52.661Z,989.82
2016-11-18T10:55:52.644Z,989.88
2016-11-18T10:56:52.631Z,989.88
2016-11-18T10:57:52.613Z,989.84
2016-11-18T10:58:52.590Z,989.83
2016-11-18T10:59:52.571Z,989.84
2016-11-18T11:00:52.558Z,989.97
2016-11-18T11:01:52.539Z,990.06
2016-11-18T11:02:52.529Z,990.02
2016-11-18T11:03:52.511Z,990.01
2016-11-18T11:04:52.486Z,990.07
2016-11-18T11:05:52.469Z,990.03
2016-11-18T11:06:52.451Z,990.08
2016-11-18T11:07:52.432Z,990.05
2016-11-18T11:08:52.421Z,990.11
2016-11-18T11:09:52.395Z,990.11
2016-11-18T11:10:52.382Z,990.06
2016-11-18T11:11:52.362Z,990.07
2016-11-18T11:12:52.341Z,990.06
2016-11-18T11:13:52.329Z,990.14
2016-11-18T11:14:52.308Z,990.09
2016-11-18T11:15:52.288Z,990.21
2016-11-18T11:16:52.272Z,990.15
2016-11-18T11:17:52.252Z,990.18
2016-11-18T11:18:52.235Z,990.11
2016-11-18T11:19:52.222Z,990.12
2016-11-18T11:20:52.202Z,990.1
2016-11-18T11:21:52.180Z,990.1
2016-11-18T11:22:52.165Z,990.21
2016-11-18T11:23:52.145Z,990.2
2016-11-18T11:24:52.125Z,990.1
2016-11-18T11:25:52.116Z,990.15
2016-11-18T11:26:52.087Z,990.07
2016-11-18T11:27:52.074Z,990.12
2016-11-18T11:28:52.052Z,990.13
2016-11-18T11:29:52.042Z,990.08
2016-11-18T11:30:52.023Z,990.07
2016-11-18T11:31:51.996Z,990.16
2016-11-18T11:32:51.991Z,990.2
2016-11-18T11:33:51.962Z,990.24
2016-11-18T11:34:51.942Z,990.18
2016-11-18T11:35:51.923Z,990.29
2016-11-18T11:36:51.907Z,990.32
2016-11-18T11:37:51.892Z,990.33
2016-11-18T11:38:51.883Z,990.24
2016-11-18T11:39:51.848Z,990.24
2016-11-18T11:40:51.832Z,990.33
2016-11-18T11:41:51.813Z,990.28
2016-11-18T11:42:51.795Z,990.27
2016-11-18T11:43:51.782Z,990.18
2016-11-18T11:44:51.763Z,990.2
2016-11-18T11:45:51.739Z,990.23
2016-11-18T11:46:51.726Z,990.27
2016-11-18T11:47:51.707Z,990.27
2016-11-18T11:48:51.678Z,990.3
2016-11-18T11:49:51.664Z,990.4
2016-11-18T11:50:51.643Z,990.31
2016-11-18T11:51:51.624Z,990.38
2016-11-18T11:52:51.604Z,990.38
2016-11-18T11:53:51.587Z,990.45
2016-11-18T11:54:51.566Z,990.47
2016-11-18T11:55:51.552Z,990.45
2016-11-18T11:56:51.533Z,990.44
2016-11-18T11:57:51.514Z,990.44
2016-11-18T11:58:51.494Z,990.54
2016-11-18T11:59:51.484Z,990.49
2016-11-18T12:00:51.458Z,990.49
2016-11-18T12:01:51.446Z,990.46
2016-11-18T12:02:51.425Z,990.46
2016-11-18T12:03:51.404Z,990.48
2016-11-18T12:04:51.383Z,990.49
2016-11-18T12:05:51.369Z,990.44
2016-11-18T12:06:51.355Z,990.44
2016-11-18T12:07:51.333Z,990.41
2016-11-18T12:08:51.315Z,990.44
2016-11-18T12:09:51.314Z,990.52
2016-11-18T12:10:51.279Z,990.45
2016-11-18T12:11:51.264Z,990.56
2016-11-18T12:12:51.243Z,990.58
2016-11-18T12:13:51.235Z,990.61
2016-11-18T12:14:51.214Z,990.58
2016-11-18T12:15:51.345Z,990.61
2016-11-18T12:16:51.174Z,990.58
2016-11-18T12:17:51.314Z,990.61
2016-11-18T12:18:51.146Z,990.53
2016-11-18T12:19:51.126Z,990.59
2016-11-18T12:20:51.112Z,990.58
2016-11-18T12:21:51.139Z,990.62
2016-11-18T12:22:51.072Z,990.62
2016-11-18T12:23:51.113Z,990.64
2016-11-18T12:24:51.039Z,990.54
2016-11-18T12:25:51.134Z,990.6
2016-11-18T12:26:51.010Z,990.56
2016-11-18T12:27:50.994Z,990.54
2016-11-18T12:28:50.976Z,990.48
2016-11-18T12:29:50.963Z,990.58
2016-11-18T12:30:50.940Z,990.49